Time;durP1;ratioP1;P1;durP2;ratioP2;P2;SDS_P1;SDS_P2;PMS_P1;PMS_P2;Temp;Humidity;BMP_temperature;BMP_pressure;BME280_temperature;BME280_humidity;BME280_pressure;Samples;Min_cycle;Max_cycle;Signal;HPM_P1;HPM_P2
2021/04/05 00:01:31;;;;;;;7.93;5.25;;;;;;;11.57;50.86;100091.50;4824318;28;98945;-63
2021/04/05 00:03:57;;;;;;;7.53;4.88;;;;;;;11.62;50.98;100085.25;4825148;28;98894;-60
2021/04/05 00:06:23;;;;;;;6.90;4.72;;;;;;;11.59;50.74;100080.41;4822965;28;98415;-59
2021/04/05 00:08:50;;;;;;;7.28;5.15;;;;;;;11.58;50.88;100074.22;4825134;28;98954;-60
2021/04/05 00:11:18;;;;;;;7.68;5.28;;;;;;;11.55;51.25;100063.97;4823020;28;97982;-59
2021/04/05 00:13:44;;;;;;;9.20;5.40;;;;;;;11.48;50.86;100061.63;4806724;28;117019;-60
2021/04/05 00:16:13;;;;;;;6.55;4.85;;;;;;;11.44;51.04;100065.97;4824378;28;97989;-60
2021/04/05 00:18:39;;;;;;;7.60;4.88;;;;;;;11.47;51.45;100056.50;4824954;28;112805;-60
2021/04/05 00:21:08;;;;;;;9.02;5.25;;;;;;;11.50;50.80;100055.94;4824059;28;103719;-63
2021/04/05 00:23:35;;;;;;;7.82;4.88;;;;;;;11.47;51.23;100060.00;4823086;28;98162;-59
2021/04/05 00:26:02;;;;;;;8.13;5.43;;;;;;;11.48;51.47;100058.13;4821861;28;109124;-63
2021/04/05 00:28:28;;;;;;;8.07;5.35;;;;;;;11.44;50.75;100057.88;4824923;28;98396;-63
2021/04/05 00:30:54;;;;;;;7.95;5.00;;;;;;;11.43;51.52;100048.16;4822586;28;123165;-60
2021/04/05 00:33:21;;;;;;;7.57;5.07;;;;;;;11.37;51.33;100035.81;4824592;28;97896;-59
2021/04/05 00:35:47;;;;;;;9.27;5.03;;;;;;;11.38;51.04;100032.00;4823955;28;97792;-63
2021/04/05 00:38:13;;;;;;;7.93;5.07;;;;;;;11.38;51.47;100023.13;4824053;28;114294;-59
2021/04/05 00:41:11;;;;;;;6.45;5.10;;;;;;;11.36;51.14;100018.00;4823886;28;98732;-59
2021/04/05 00:43:38;;;;;;;8.20;5.43;;;;;;;11.31;51.63;100009.94;4823357;28;118265;-63
2021/04/05 00:46:06;;;;;;;8.60;5.28;;;;;;;11.33;51.45;99994.28;4825226;28;97955;-59
2021/04/05 00:48:32;;;;;;;7.63;4.85;;;;;;;11.33;51.44;99991.59;4807057;28;98638;-63
2021/04/05 00:51:16;;;;;;;7.55;5.00;;;;;;;11.31;51.35;99986.47;4823448;28;108378;-63
2021/04/05 00:53:44;;;;;;;7.32;4.63;;;;;;;11.33;51.21;99980.00;4824386;28;98049;-60
2021/04/05 00:56:11;;;;;;;8.00;4.80;;;;;;;11.31;51.18;99964.88;4823754;28;97744;-63
2021/04/05 00:58:37;;;;;;;6.40;4.95;;;;;;;11.25;51.50;99963.31;4824315;28;98709;-63
2021/04/05 01:01:07;;;;;;;6.22;4.43;;;;;;;11.27;51.23;99965.72;4821561;28;116464;-63
2021/04/05 01:03:36;;;;;;;7.35;4.72;;;;;;;11.25;51.46;99952.53;4823857;28;97920;-63
2021/04/05 01:06:10;;;;;;;7.97;5.20;;;;;;;11.25;51.23;99949.84;4822130;28;98992;-60
2021/04/05 01:08:36;;;;;;;6.90;4.90;;;;;;;11.24;51.83;99937.44;4824510;28;98479;-60
2021/04/05 01:11:02;;;;;;;6.80;4.72;;;;;;;11.24;51.23;99921.25;4823299;28;98998;-59
2021/04/05 01:13:28;;;;;;;7.55;5.10;;;;;;;11.21;50.93;99915.63;4823575;28;102346;-63
2021/04/05 01:15:55;;;;;;;7.47;4.45;;;;;;;11.21;51.52;99915.63;4823356;28;107316;-63
2021/04/05 01:18:21;;;;;;;7.35;4.35;;;;;;;11.20;52.00;99914.00;4824612;28;98336;-63
2021/04/05 01:20:48;;;;;;;6.95;4.47;;;;;;;11.20;51.58;99903.19;4824214;28;98502;-60
2021/04/05 01:23:16;;;;;;;6.32;4.60;;;;;;;11.20;51.43;99897.81;4824373;28;98129;-63
2021/04/05 01:25:42;;;;;;;8.48;4.75;;;;;;;11.19;51.75;99890.81;4823657;28;97896;-60
2021/04/05 01:28:09;;;;;;;7.60;4.70;;;;;;;11.18;51.94;99889.22;4824327;28;98685;-63
2021/04/05 01:30:40;;;;;;;7.45;4.70;;;;;;;11.16;51.38;99870.63;4823132;28;98697;-59
2021/04/05 01:33:18;;;;;;;6.07;4.20;;;;;;;11.10;51.48;99863.66;4823900;28;97878;-63
2021/04/05 01:35:53;;;;;;;8.15;4.50;;;;;;;11.10;51.27;99858.25;4823787;28;97805;-60
2021/04/05 01:38:38;;;;;;;7.13;4.88;;;;;;;11.08;51.80;99860.41;4823920;28;98887;-63
2021/04/05 01:41:08;;;;;;;7.50;4.35;;;;;;;11.08;51.52;99852.34;4823826;28;98291;-64
2021/04/05 01:43:34;;;;;;;9.48;4.85;;;;;;;11.09;51.60;99840.47;4821941;28;117972;-63
2021/04/05 01:46:01;;;;;;;7.68;4.85;;;;;;;11.09;51.65;99845.06;4838168;28;98091;-60
2021/04/05 01:48:28;;;;;;;6.68;4.38;;;;;;;11.07;50.88;99831.84;4821986;28;99010;-60
2021/04/05 01:51:09;;;;;;;9.68;4.95;;;;;;;11.05;51.72;99820.56;4822568;28;98830;-59
2021/04/05 01:53:35;;;;;;;8.45;4.57;;;;;;;11.01;51.26;99819.53;4822233;28;99381;-63
2021/04/05 01:56:07;;;;;;;7.88;4.40;;;;;;;11.02;51.70;99811.13;4822200;28;98236;-63
2021/04/05 01:58:37;;;;;;;7.55;4.60;;;;;;;11.02;51.70;99802.25;4823116;28;98802;-60
2021/04/05 02:01:05;;;;;;;8.88;4.35;;;;;;;11.05;52.11;99799.78;4822869;28;98736;-63
2021/04/05 02:03:31;;;;;;;8.75;5.20;;;;;;;11.00;51.85;99799.03;4823874;28;101149;-60
2021/04/05 02:06:03;;;;;;;9.30;4.57;;;;;;;11.01;51.58;99798.75;4820909;28;112946;-59
2021/04/05 02:08:30;;;;;;;9.88;4.78;;;;;;;11.02;51.58;99794.16;4822823;28;107257;-59
2021/04/05 02:10:59;;;;;;;7.82;4.60;;;;;;;11.01;51.08;99789.88;4821826;28;118980;-60
2021/04/05 02:13:25;;;;;;;7.43;4.63;;;;;;;10.95;51.48;99780.19;4823646;28;97670;-60
2021/04/05 02:15:52;;;;;;;9.15;4.82;;;;;;;11.00;52.16;99774.75;4805221;28;110270;-63
2021/04/05 02:18:20;;;;;;;8.00;4.50;;;;;;;10.97;51.07;99765.34;4820840;28;112750;-63
2021/04/05 02:20:47;;;;;;;9.10;4.57;;;;;;;10.98;51.92;99761.56;4822576;28;98295;-63
2021/04/05 02:23:13;;;;;;;9.18;4.82;;;;;;;10.96;51.96;99733.25;4837007;28;98140;-60
2021/04/05 02:26:06;;;;;;;8.45;4.53;;;;;;;10.99;51.77;99725.41;4820579;28;98164;-63
2021/04/05 02:28:26;;;;;;;8.07;4.47;;;;;;;10.99;51.57;99711.94;4821464;28;98670;-60
2021/04/05 02:30:53;;;;;;;9.38;4.80;;;;;;;10.98;51.64;99704.94;4820555;28;98788;-60
2021/04/05 02:33:19;;;;;;;8.35;4.70;;;;;;;10.93;51.76;99702.31;4804776;28;127713;-60
2021/04/05 02:35:45;;;;;;;8.45;4.95;;;;;;;10.98;51.87;99704.13;4821218;28;97939;-60
2021/04/05 02:38:11;;;;;;;8.85;4.80;;;;;;;10.97;51.91;99700.63;4822265;28;126913;-60
2021/04/05 02:40:37;;;;;;;9.57;4.70;;;;;;;10.95;51.91;99702.00;4820110;28;126714;-60
2021/04/05 02:43:03;;;;;;;8.95;4.63;;;;;;;10.98;51.20;99683.34;4822283;28;98543;-60
2021/04/05 02:45:29;;;;;;;7.93;4.05;;;;;;;10.96;51.28;99682.81;4822638;28;106947;-60
2021/04/05 02:47:57;;;;;;;8.13;4.38;;;;;;;10.92;52.03;99670.22;4820429;28;124489;-63
2021/04/05 02:50:27;;;;;;;7.10;4.18;;;;;;;10.95;51.96;99664.25;4820881;28;98717;-59
2021/04/05 02:52:58;;;;;;;8.65;4.57;;;;;;;10.98;51.78;99660.97;4822480;28;117977;-60
2021/04/05 02:55:24;;;;;;;8.43;4.45;;;;;;;10.98;51.45;99648.31;4821226;28;98214;-60
2021/04/05 02:57:50;;;;;;;8.57;4.38;;;;;;;10.98;51.24;99655.59;4804488;28;127778;-60
2021/04/05 03:00:18;;;;;;;9.23;4.38;;;;;;;11.00;51.87;99642.59;4820005;28;122970;-60
2021/04/05 03:02:48;;;;;;;8.88;4.40;;;;;;;10.95;52.08;99640.78;4821936;28;98528;-63
2021/04/05 03:05:17;;;;;;;8.90;4.20;;;;;;;10.99;52.17;99631.03;4820673;28;100274;-60
2021/04/05 03:07:43;;;;;;;7.63;4.30;;;;;;;10.99;52.43;99633.72;4822529;28;98145;-60
2021/04/05 03:10:10;;;;;;;8.60;4.45;;;;;;;11.00;52.41;99624.56;4820306;28;98617;-63
2021/04/05 03:12:38;;;;;;;7.28;4.20;;;;;;;11.00;51.86;99612.94;4822147;28;98540;-63
2021/04/05 03:15:10;;;;;;;7.88;4.13;;;;;;;10.99;52.10;99604.06;4821071;28;99262;-60
2021/04/05 03:17:37;;;;;;;9.57;4.45;;;;;;;10.99;51.85;99595.97;4822498;28;98208;-63
2021/04/05 03:20:17;;;;;;;9.32;4.00;;;;;;;10.91;52.16;99585.84;4821914;28;99066;-60
2021/04/05 03:22:44;;;;;;;7.18;4.05;;;;;;;10.99;52.39;99581.69;4805094;28;97872;-60
2021/04/05 03:25:16;;;;;;;6.75;4.22;;;;;;;11.06;51.76;99563.25;4820504;28;97991;-63
2021/04/05 03:27:43;;;;;;;7.47;4.10;;;;;;;11.07;51.77;99557.56;4822128;28;98495;-63
2021/04/05 03:30:21;;;;;;;8.00;4.05;;;;;;;11.09;51.92;99545.69;4821892;28;102249;-63
2021/04/05 03:32:48;;;;;;;7.75;3.70;;;;;;;11.14;51.74;99535.63;4821411;28;98143;-63
2021/04/05 03:35:16;;;;;;;9.93;4.47;;;;;;;11.14;52.04;99522.13;4820393;28;98105;-60
2021/04/05 03:37:43;;;;;;;7.40;4.13;;;;;;;11.16;51.66;99519.13;4821754;28;112682;-63
2021/04/05 03:40:09;;;;;;;7.85;4.40;;;;;;;11.20;51.75;99520.16;4807393;28;98399;-60
2021/04/05 03:42:43;;;;;;;8.75;3.90;;;;;;;11.16;52.11;99509.16;4823139;28;98294;-63
2021/04/05 03:45:19;;;;;;;7.60;3.97;;;;;;;11.11;51.51;99500.34;4823354;28;98025;-63
2021/04/05 03:47:50;;;;;;;7.82;4.10;;;;;;;11.13;52.30;99498.16;4823179;28;98865;-63
2021/04/05 03:50:39;;;;;;;9.05;4.03;;;;;;;11.13;52.00;99490.88;4823153;28;98250;-60
2021/04/05 03:53:28;;;;;;;8.02;4.30;;;;;;;11.18;51.71;99487.28;4822725;28;97740;-60
2021/04/05 03:56:01;;;;;;;10.18;4.30;;;;;;;11.17;52.10;99485.69;4822373;28;98144;-60
2021/04/05 03:58:30;;;;;;;8.45;4.40;;;;;;;11.19;51.85;99481.59;4808383;28;100490;-64
2021/04/05 04:00:56;;;;;;;10.15;4.65;;;;;;;11.13;52.41;99487.38;4807192;28;110449;-60
2021/04/05 04:03:32;;;;;;;8.88;4.22;;;;;;;11.17;51.48;99481.09;4824744;28;99137;-63
2021/04/05 04:06:01;;;;;;;8.65;4.20;;;;;;;11.22;52.02;99472.91;4809081;28;98441;-63
2021/04/05 04:08:32;;;;;;;8.73;4.18;;;;;;;11.16;52.42;99463.31;4825145;28;98543;-63
2021/04/05 04:11:00;;;;;;;7.75;4.35;;;;;;;11.13;52.09;99465.78;4823094;28;98542;-60
2021/04/05 04:13:27;;;;;;;9.40;4.60;;;;;;;11.15;52.12;99471.69;4823571;28;97725;-63
2021/04/05 04:15:53;;;;;;;8.35;4.50;;;;;;;11.21;51.79;99455.13;4823226;28;97924;-60
2021/04/05 04:18:19;;;;;;;9.57;4.28;;;;;;;11.17;51.78;99445.22;4806700;28;120833;-63
2021/04/05 04:20:46;;;;;;;8.70;4.53;;;;;;;11.18;51.86;99444.13;4822665;28;99102;-63
2021/04/05 04:23:13;;;;;;;7.47;4.47;;;;;;;11.15;52.12;99450.91;4822266;28;107242;-63
2021/04/05 04:25:40;;;;;;;9.55;4.75;;;;;;;11.19;51.65;99448.41;4838798;28;97975;-60
2021/04/05 04:28:06;;;;;;;10.05;4.97;;;;;;;11.11;52.16;99436.41;4823119;28;98598;-60
2021/04/05 04:30:33;;;;;;;8.30;4.63;;;;;;;11.17;52.61;99432.53;4822971;28;128223;-60
2021/04/05 04:33:04;;;;;;;9.77;5.03;;;;;;;11.03;52.72;99421.69;4823889;28;99042;-63
2021/04/05 04:35:31;;;;;;;8.98;5.03;;;;;;;11.15;51.84;99402.34;4824174;28;97785;-59
2021/04/05 04:37:58;;;;;;;8.65;4.65;;;;;;;11.11;51.23;99397.84;4824510;28;98239;-63
2021/04/05 04:40:25;;;;;;;10.02;4.88;;;;;;;11.02;52.02;99397.75;4823282;28;115200;-63
2021/04/05 04:42:51;;;;;;;9.75;5.10;;;;;;;11.15;51.31;99396.97;4824936;28;98407;-60
2021/04/05 04:45:18;;;;;;;8.48;4.85;;;;;;;11.16;52.50;99386.97;4824665;28;98001;-63
2021/04/05 04:47:45;;;;;;;9.63;4.88;;;;;;;11.23;51.83;99398.97;4824202;28;99317;-63
2021/04/05 04:50:15;;;;;;;10.20;5.10;;;;;;;11.17;51.97;99402.06;4838400;28;98466;-63
2021/04/05 04:52:41;;;;;;;8.40;4.75;;;;;;;11.19;51.60;99403.34;4822219;28;97958;-60
2021/04/05 04:55:08;;;;;;;8.90;4.60;;;;;;;11.23;52.53;99400.88;4822220;28;116254;-63
2021/04/05 04:57:34;;;;;;;7.50;4.55;;;;;;;11.29;52.03;99405.09;4824305;28;98660;-63
2021/04/05 05:00:00;;;;;;;9.25;4.88;;;;;;;11.30;52.14;99396.69;4821257;28;128529;-64
2021/04/05 05:02:27;;;;;;;8.65;4.70;;;;;;;11.34;52.20;99388.00;4838453;28;97840;-63
2021/04/05 05:04:53;;;;;;;9.27;5.00;;;;;;;11.36;52.01;99375.81;4820918;28;117650;-60
2021/04/05 05:07:19;;;;;;;9.57;5.20;;;;;;;11.39;51.59;99374.41;4837834;28;123865;-63
2021/04/05 05:09:45;;;;;;;10.45;5.40;;;;;;;11.49;50.90;99380.44;4805215;28;126299;-60
2021/04/05 05:12:12;;;;;;;10.88;5.50;;;;;;;11.49;51.64;99374.22;4820408;28;128437;-60
2021/04/05 05:14:38;;;;;;;8.55;5.03;;;;;;;11.45;51.75;99365.94;4821366;28;105102;-63
2021/04/05 05:17:05;;;;;;;10.35;5.18;;;;;;;11.39;51.95;99353.63;4837044;28;128161;-63
2021/04/05 05:19:33;;;;;;;9.70;5.18;;;;;;;11.37;52.32;99382.81;4821753;28;112182;-63
2021/04/05 05:21:59;;;;;;;9.55;5.30;;;;;;;11.34;51.90;99380.72;4807810;28;97944;-60
2021/04/05 05:24:27;;;;;;;9.20;5.18;;;;;;;11.30;51.98;99385.09;4818819;28;107094;-63
2021/04/05 05:26:54;;;;;;;9.90;4.82;;;;;;;11.26;52.81;99367.91;4803139;29;113147;-63
2021/04/05 05:29:21;;;;;;;9.57;5.13;;;;;;;11.21;52.96;99357.22;4801641;29;128032;-63
2021/04/05 05:31:47;;;;;;;10.20;5.50;;;;;;;11.17;52.73;99340.03;4803262;29;98078;-63
2021/04/05 05:34:18;;;;;;;11.65;5.63;;;;;;;11.13;53.17;99349.81;4802208;29;98052;-60
2021/04/05 05:36:45;;;;;;;11.30;6.00;;;;;;;11.14;53.10;99337.94;4833890;28;98402;-60
2021/04/05 05:39:12;;;;;;;10.98;5.65;;;;;;;11.15;52.94;99326.03;4838286;28;102809;-63
2021/04/05 05:42:09;;;;;;;11.45;5.70;;;;;;;11.14;52.88;99321.75;4836541;28;97926;-63
2021/04/05 05:44:59;;;;;;;10.15;5.70;;;;;;;11.17;52.78;99323.84;4837034;28;98159;-60
2021/04/05 05:47:26;;;;;;;11.45;5.63;;;;;;;11.19;53.29;99310.84;4839012;28;98811;-60
2021/04/05 05:50:49;;;;;;;11.32;5.68;;;;;;;11.24;52.64;99305.38;4838444;28;98507;-63
2021/04/05 05:53:53;;;;;;;11.95;6.05;;;;;;;11.31;53.06;99300.38;4837271;28;98367;-60
2021/04/05 05:56:50;;;;;;;9.98;5.85;;;;;;;11.37;52.54;99295.69;4838807;28;98063;-63
2021/04/05 05:59:47;;;;;;;11.65;5.97;;;;;;;11.41;52.91;99283.97;4837200;28;98909;-60
2021/04/05 06:02:56;;;;;;;11.15;6.40;;;;;;;11.47;52.71;99293.56;4837420;28;98508;-63
2021/04/05 06:05:47;;;;;;;10.98;6.10;;;;;;;11.53;53.10;99280.78;4834523;28;103898;-60
2021/04/05 06:09:05;;;;;;;14.73;6.40;;;;;;;11.64;52.72;99268.66;4835669;28;97877;-63
2021/04/05 06:11:56;;;;;;;10.60;5.88;;;;;;;11.70;52.38;99275.53;4835694;28;97799;-63
2021/04/05 06:14:30;;;;;;;10.95;6.43;;;;;;;11.80;52.29;99264.53;4836189;28;99002;-63
2021/04/05 06:17:14;;;;;;;11.45;6.38;;;;;;;11.93;52.45;99260.22;4838678;28;98055;-60
2021/04/05 06:19:52;;;;;;;10.93;6.45;;;;;;;12.14;52.31;99271.34;4833725;28;98353;-60
2021/04/05 06:23:06;;;;;;;11.95;6.47;;;;;;;12.32;51.88;99250.66;4822637;28;98547;-60
2021/04/05 06:26:11;;;;;;;10.75;6.68;;;;;;;12.35;51.95;99276.28;4818820;28;98550;-63
2021/04/05 06:28:49;;;;;;;11.73;6.18;;;;;;;12.36;52.86;99253.53;4836775;28;98014;-63
2021/04/05 06:31:49;;;;;;;12.30;6.63;;;;;;;12.30;52.31;99255.59;4836710;28;100014;-63
2021/04/05 06:34:23;;;;;;;12.90;6.78;;;;;;;12.22;52.81;99256.28;4837936;28;98824;-63
2021/04/05 06:37:00;;;;;;;11.40;6.72;;;;;;;12.14;53.50;99252.44;4837536;28;98936;-60
2021/04/05 06:39:27;;;;;;;11.95;6.97;;;;;;;12.16;53.17;99242.13;4835767;28;98635;-63
2021/04/05 06:41:59;;;;;;;11.48;6.70;;;;;;;12.10;53.14;99240.63;4832319;28;97849;-63
2021/04/05 06:44:31;;;;;;;11.30;6.80;;;;;;;12.10;53.92;99246.03;4837259;28;98607;-63
2021/04/05 06:47:37;;;;;;;12.03;6.73;;;;;;;12.14;53.46;99236.22;4832925;28;98471;-64
2021/04/05 06:50:27;;;;;;;12.38;7.22;;;;;;;12.19;53.40;99228.00;4836928;28;98135;-63
2021/04/05 06:53:39;;;;;;;12.00;6.93;;;;;;;12.23;53.27;99225.50;4837635;28;98038;-59
2021/04/05 06:56:13;;;;;;;12.80;7.20;;;;;;;12.36;53.24;99216.50;4835832;28;99066;-63
2021/04/05 06:59:18;;;;;;;13.82;7.07;;;;;;;12.47;52.67;99208.94;4820970;28;98781;-63
2021/04/05 07:02:23;;;;;;;12.02;7.07;;;;;;;12.60;52.36;99205.34;4828048;28;97968;-60
2021/04/05 07:05:32;;;;;;;11.57;7.07;;;;;;;12.74;52.06;99195.25;4832509;28;98161;-60
2021/04/05 07:08:13;;;;;;;15.43;7.80;;;;;;;12.92;51.62;99174.47;4824097;28;98595;-63
2021/04/05 07:10:44;;;;;;;12.38;6.80;;;;;;;13.07;51.44;99172.44;4836309;28;99014;-63
2021/04/05 07:13:38;;;;;;;12.23;7.47;;;;;;;13.32;50.94;99174.41;4838989;28;98692;-63
2021/04/05 07:16:29;;;;;;;12.90;7.38;;;;;;;13.57;50.92;99169.38;4840096;28;98076;-63
2021/04/05 07:19:28;;;;;;;13.52;7.70;;;;;;;13.72;50.12;99152.63;4841122;28;98698;-63
2021/04/05 07:22:25;;;;;;;14.13;8.13;;;;;;;13.80;49.71;99157.25;4840651;28;98449;-60
2021/04/05 07:25:06;;;;;;;12.73;7.07;;;;;;;13.92;50.05;99148.47;4831646;28;98181;-60
2021/04/05 07:28:10;;;;;;;13.38;8.43;;;;;;;13.94;50.06;99140.81;4838438;28;98085;-60
2021/04/05 07:30:50;;;;;;;13.50;9.05;;;;;;;14.02;49.71;99133.78;4840690;28;98608;-63
2021/04/05 07:33:37;;;;;;;15.15;8.90;;;;;;;14.14;49.09;99134.72;4854183;28;103235;-63
2021/04/05 07:36:30;;;;;;;14.68;8.90;;;;;;;14.13;49.36;99130.41;4837849;28;99080;-60
2021/04/05 07:39:16;;;;;;;16.83;9.43;;;;;;;14.11;48.83;99118.31;4839018;28;98156;-63
2021/04/05 07:42:13;;;;;;;14.05;8.95;;;;;;;14.29;48.60;99100.88;4833293;28;112536;-63
2021/04/05 07:45:06;;;;;;;13.07;8.25;;;;;;;14.39;48.46;99099.75;4831022;28;98711;-60
2021/04/05 07:48:32;;;;;;;16.23;8.52;;;;;;;14.64;47.63;99096.13;4834587;28;99259;-60
2021/04/05 07:51:13;;;;;;;15.38;8.75;;;;;;;14.96;46.73;99096.59;4818297;28;97811;-63
2021/04/05 07:53:48;;;;;;;12.30;8.30;;;;;;;14.99;46.35;99087.78;4845326;28;98786;-63
2021/04/05 07:56:29;;;;;;;12.27;7.60;;;;;;;14.94;46.21;99080.66;4822734;28;98660;-63
2021/04/05 07:59:14;;;;;;;13.40;8.23;;;;;;;15.11;45.94;99089.78;4824445;28;97789;-60
2021/04/05 08:01:59;;;;;;;12.65;8.05;;;;;;;14.93;46.21;99070.94;4854124;28;98754;-63
2021/04/05 08:05:11;;;;;;;15.23;8.32;;;;;;;14.78;46.56;99068.78;4833345;28;99169;-63
2021/04/05 08:07:59;;;;;;;14.95;8.68;;;;;;;14.65;46.98;99069.81;4835127;28;102262;-64
2021/04/05 08:10:55;;;;;;;13.50;8.95;;;;;;;14.64;46.19;99060.09;4839968;28;98102;-60
2021/04/05 08:13:47;;;;;;;14.70;8.65;;;;;;;14.74;47.87;99048.88;4840625;28;97866;-60
2021/04/05 08:16:41;;;;;;;11.88;8.40;;;;;;;14.81;47.11;99046.41;4821887;28;100641;-60
2021/04/05 08:19:37;;;;;;;16.60;11.23;;;;;;;14.92;46.18;99042.19;4837901;28;98445;-63
2021/04/05 08:22:44;;;;;;;15.05;10.10;;;;;;;15.42;45.24;99038.59;4838091;28;98102;-60
2021/04/05 08:25:47;;;;;;;14.63;9.13;;;;;;;16.10;44.69;99026.56;4839877;28;98512;-63
2021/04/05 08:28:46;;;;;;;12.27;8.73;;;;;;;16.64;44.61;99018.19;4838546;28;98224;-60
2021/04/05 08:31:43;;;;;;;12.45;8.13;;;;;;;17.03;44.18;99010.41;4837554;28;98461;-60
2021/04/05 08:34:34;;;;;;;11.55;8.15;;;;;;;16.81;44.67;99011.69;4837527;28;97952;-60
2021/04/05 08:37:41;;;;;;;12.85;7.53;;;;;;;16.75;44.81;99013.09;4828399;28;98086;-60
2021/04/05 08:40:13;;;;;;;11.82;7.78;;;;;;;16.57;44.49;99013.31;4838070;28;98190;-64
2021/04/05 08:43:10;;;;;;;12.48;8.05;;;;;;;16.64;45.67;99012.72;4837596;28;98596;-60
2021/04/05 08:46:09;;;;;;;12.55;8.02;;;;;;;16.61;44.27;99003.31;4832603;28;99016;-63
2021/04/05 08:48:37;;;;;;;14.88;7.80;;;;;;;16.54;45.26;99002.31;4831211;28;98455;-60
2021/04/05 08:51:08;;;;;;;15.02;7.90;;;;;;;16.48;45.50;98998.25;4836964;28;98532;-64
2021/04/05 08:53:37;;;;;;;14.20;7.57;;;;;;;16.41;45.69;99002.31;4837481;28;98336;-63
2021/04/05 08:56:04;;;;;;;11.65;7.40;;;;;;;16.45;45.57;99003.22;4821341;28;118538;-63
2021/04/05 08:58:40;;;;;;;12.23;8.52;;;;;;;16.11;46.21;99011.84;4837516;28;98012;-63
2021/04/05 09:01:09;;;;;;;13.82;8.05;;;;;;;15.82;45.91;99029.13;4822283;28;99101;-63
2021/04/05 09:03:35;;;;;;;13.00;7.85;;;;;;;15.56;47.02;99032.06;4846154;28;98532;-60
2021/04/05 09:06:07;;;;;;;11.98;7.55;;;;;;;15.40;47.57;99031.91;4807815;28;98411;-60
2021/04/05 09:08:33;;;;;;;11.60;8.00;;;;;;;15.23;48.41;99028.22;4822744;28;98183;-63
2021/04/05 09:11:05;;;;;;;13.85;8.50;;;;;;;15.07;47.34;99026.44;4836573;28;126398;-63
2021/04/05 09:13:45;;;;;;;12.82;7.90;;;;;;;14.98;47.44;99029.22;4837579;28;98376;-60
2021/04/05 09:16:39;;;;;;;14.48;8.68;;;;;;;14.87;48.36;99023.41;4837407;28;98076;-60
2021/04/05 09:19:37;;;;;;;14.18;8.93;;;;;;;14.73;47.88;99006.56;4838765;28;98095;-61
2021/04/05 09:22:35;;;;;;;12.48;8.40;;;;;;;14.74;47.76;99021.75;4832242;28;98525;-63
2021/04/05 09:25:42;;;;;;;14.10;8.55;;;;;;;14.75;48.35;99007.06;4823420;28;117796;-63
2021/04/05 09:29:18;;;;;;;12.32;8.05;;;;;;;14.61;48.27;99001.06;4823054;28;98206;-60
2021/04/05 09:31:48;;;;;;;12.65;8.45;;;;;;;14.63;49.68;99005.06;4832355;28;97904;-63
2021/04/05 09:35:04;;;;;;;12.75;8.80;;;;;;;14.48;49.14;99005.59;4837137;28;98335;-60
2021/04/05 09:38:00;;;;;;;12.40;8.23;;;;;;;14.44;49.73;98999.25;4817416;28;98597;-63
2021/04/05 09:41:24;;;;;;;12.85;8.48;;;;;;;14.23;49.97;99001.91;4834867;28;97974;-63
2021/04/05 09:44:19;;;;;;;;;;;;;;;13.99;50.52;99011.41;4823284;28;98054;-60
2021/04/05 09:47:25;;;;;;;14.13;8.90;;;;;;;13.87;50.84;98986.94;4850380;28;98367;-60
2021/04/05 09:50:22;;;;;;;13.27;8.93;;;;;;;13.74;51.86;98998.75;4832413;28;98788;-59
2021/04/05 09:53:17;;;;;;;12.75;8.90;;;;;;;13.68;51.98;98990.03;4830856;28;98711;-63
2021/04/05 09:55:48;;;;;;;14.88;9.30;;;;;;;13.60;52.23;98988.13;4839140;28;98121;-59
2021/04/05 09:58:20;;;;;;;14.17;9.30;;;;;;;13.55;52.57;98998.31;4839673;28;98926;-63
2021/04/05 10:01:06;;;;;;;14.67;9.27;;;;;;;13.44;52.89;98989.75;4836776;28;98622;-63
2021/04/05 10:03:43;;;;;;;12.80;8.98;;;;;;;13.38;52.90;98991.81;4831571;28;122762;-63
2021/04/05 10:06:12;;;;;;;14.95;9.30;;;;;;;13.39;53.40;98981.78;4829964;28;98057;-63
2021/04/05 10:08:38;;;;;;;14.65;9.95;;;;;;;13.36;53.43;98977.84;4830400;28;98350;-59
2021/04/05 10:11:04;;;;;;;13.68;9.43;;;;;;;13.38;53.52;98994.53;4828500;28;116038;-60
2021/04/05 10:13:31;;;;;;;14.40;8.75;;;;;;;13.42;53.15;98978.44;4836396;28;98754;-60
2021/04/05 10:15:58;;;;;;;14.38;9.05;;;;;;;13.55;53.41;98980.16;4833860;28;110080;-64
2021/04/05 10:18:24;;;;;;;15.88;9.27;;;;;;;13.59;52.79;98983.81;4836698;28;115368;-60
2021/04/05 10:20:51;;;;;;;13.20;8.98;;;;;;;13.61;53.73;98978.88;4824029;28;115268;-60
2021/04/05 10:23:25;;;;;;;14.93;9.20;;;;;;;13.68;53.48;98986.53;4822573;28;98382;-60
2021/04/05 10:25:59;;;;;;;12.18;8.50;;;;;;;13.66;53.78;98986.03;4820549;28;98315;-60
2021/04/05 10:28:30;;;;;;;12.90;8.68;;;;;;;13.66;53.41;98989.53;4838652;28;98487;-60
2021/04/05 10:30:59;;;;;;;13.77;9.50;;;;;;;13.60;54.04;98987.34;4829670;28;98778;-63
2021/04/05 10:33:38;;;;;;;13.82;9.00;;;;;;;13.57;54.31;98991.47;4825484;28;98059;-63
2021/04/05 10:36:06;;;;;;;14.45;8.90;;;;;;;13.59;54.67;98988.44;4825847;28;98166;-64
2021/04/05 10:38:34;;;;;;;12.23;8.32;;;;;;;13.52;54.87;98997.06;4834082;28;98135;-60
2021/04/05 10:41:00;;;;;;;12.95;9.13;;;;;;;13.49;55.07;99001.22;4832895;28;102548;-60
2021/04/05 10:43:33;;;;;;;13.48;9.02;;;;;;;13.42;55.16;98995.47;4815556;28;104028;-64
2021/04/05 10:46:19;;;;;;;14.07;8.93;;;;;;;13.46;54.72;98993.72;4837694;28;98195;-60
2021/04/05 10:49:15;;;;;;;14.35;9.05;;;;;;;13.48;54.83;98988.00;4819155;28;98386;-63
2021/04/05 10:52:09;;;;;;;14.35;9.23;;;;;;;13.39;55.33;98996.13;4833692;28;99095;-63
2021/04/05 10:54:49;;;;;;;13.38;9.30;;;;;;;13.41;55.55;98998.53;4824423;28;98609;-63
2021/04/05 10:57:35;;;;;;;13.07;8.75;;;;;;;13.43;55.66;98993.56;4818672;28;97863;-60
2021/04/05 11:00:09;;;;;;;14.77;9.65;;;;;;;13.40;56.04;98999.63;4819968;28;98635;-60
2021/04/05 11:02:55;;;;;;;15.02;9.90;;;;;;;13.33;55.89;98993.91;4837174;28;106442;-63
2021/04/05 11:05:23;;;;;;;14.68;10.43;;;;;;;13.39;56.12;98985.28;4821948;28;98077;-60
2021/04/05 11:07:57;;;;;;;13.43;9.25;;;;;;;13.43;55.79;98991.66;4833465;28;98118;-63
2021/04/05 11:10:25;;;;;;;14.43;9.57;;;;;;;13.53;56.00;98981.63;4832115;28;99047;-63
2021/04/05 11:13:01;;;;;;;12.75;9.32;;;;;;;13.47;55.95;98989.09;4839466;28;98523;-60
2021/04/05 11:15:27;;;;;;;11.75;9.27;;;;;;;13.47;56.33;98984.47;4835610;28;99501;-60
2021/04/05 11:17:54;;;;;;;14.63;9.52;;;;;;;13.44;56.63;98981.63;4801555;28;98060;-60
2021/04/05 11:20:31;;;;;;;14.13;9.80;;;;;;;13.45;56.57;98978.59;4841374;28;98657;-60
2021/04/05 11:23:15;;;;;;;12.88;9.20;;;;;;;13.43;56.60;98975.41;4824638;28;98551;-63
2021/04/05 11:25:49;;;;;;;13.77;9.38;;;;;;;13.34;57.00;98966.53;4819335;28;98296;-60
2021/04/05 11:28:29;;;;;;;14.13;9.43;;;;;;;13.39;57.28;98971.75;4832341;28;97858;-65
2021/04/05 11:31:05;;;;;;;13.88;10.13;;;;;;;13.22;57.59;98975.25;4838432;28;98163;-63
2021/04/05 11:33:34;;;;;;;13.38;9.52;;;;;;;12.99;58.55;99060.41;4838972;28;98842;-60
2021/04/05 11:36:01;;;;;;;13.50;9.73;;;;;;;12.85;58.48;99075.97;4833731;28;102754;-60
2021/04/05 11:38:27;;;;;;;12.35;8.07;;;;;;;12.71;58.17;99087.72;4817277;28;106644;-59
2021/04/05 11:41:01;;;;;;;9.75;7.13;;;;;;;12.61;57.46;99098.00;4822045;28;126537;-60
2021/04/05 11:43:31;;;;;;;8.50;6.07;;;;;;;12.58;57.82;99104.06;4839259;28;99009;-63
2021/04/05 11:46:11;;;;;;;7.57;5.55;;;;;;;12.48;57.36;99102.44;4820816;28;114568;-59
2021/04/05 11:48:38;;;;;;;7.13;5.25;;;;;;;12.44;56.82;99109.56;4833661;28;97985;-60
2021/04/05 11:51:04;;;;;;;5.93;4.15;;;;;;;12.35;57.24;99114.94;4829826;28;98978;-60
2021/04/05 11:53:52;;;;;;;6.13;3.95;;;;;;;12.26;56.99;99120.31;4837902;28;100634;-63
2021/04/05 11:56:23;;;;;;;4.60;3.28;;;;;;;12.22;57.95;99132.84;4832031;28;117094;-59
2021/04/05 11:59:21;;;;;;;4.30;2.90;;;;;;;12.15;57.96;99126.28;4836318;28;97897;-63
2021/04/05 12:02:15;;;;;;;3.70;2.53;;;;;;;12.09;57.40;99128.31;4829667;28;98508;-59
2021/04/05 12:04:52;;;;;;;3.30;2.25;;;;;;;11.97;57.71;99145.06;4823315;28;98429;-60
2021/04/05 12:07:23;;;;;;;3.28;2.15;;;;;;;11.99;57.90;99145.59;4819316;28;98831;-63
2021/04/05 12:10:05;;;;;;;3.03;1.88;;;;;;;11.99;58.37;99136.69;4817362;28;98413;-59
2021/04/05 12:12:40;;;;;;;2.10;1.48;;;;;;;12.01;57.65;99140.66;4833774;28;98584;-63